sensor_id;sensor_type;location;lat;lon;timestamp;P1;durP1;ratioP1;P2;durP2;ratioP2
38479;SDS011;62333;51.980;5.934;2023-04-29T00:01:06;19.05;;;14.15;;
38479;SDS011;62333;51.980;5.934;2023-04-29T00:03:32;23.55;;;14.27;;
38479;SDS011;62333;51.980;5.934;2023-04-29T00:05:58;18.23;;;13.60;;
38479;SDS011;62333;51.980;5.934;2023-04-29T00:08:25;21.25;;;15.85;;
38479;SDS011;62333;51.980;5.934;2023-04-29T00:10:51;23.60;;;15.73;;
38479;SDS011;62333;51.980;5.934;2023-04-29T00:13:16;23.95;;;15.77;;
38479;SDS011;62333;51.980;5.934;2023-04-29T00:15:42;22.20;;;16.23;;
38479;SDS011;62333;51.980;5.934;2023-04-29T00:18:08;19.50;;;13.95;;
38479;SDS011;62333;51.980;5.934;2023-04-29T00:20:35;23.90;;;17.17;;
38479;SDS011;62333;51.980;5.934;2023-04-29T00:23:02;24.17;;;16.23;;
38479;SDS011;62333;51.980;5.934;2023-04-29T00:25:28;19.52;;;14.57;;
38479;SDS011;62333;51.980;5.934;2023-04-29T00:27:53;18.38;;;14.07;;
38479;SDS011;62333;51.980;5.934;2023-04-29T00:30:19;17.50;;;11.75;;
38479;SDS011;62333;51.980;5.934;2023-04-29T00:32:45;19.52;;;12.88;;
38479;SDS011;62333;51.980;5.934;2023-04-29T00:35:11;16.33;;;12.27;;
38479;SDS011;62333;51.980;5.934;2023-04-29T00:37:37;20.13;;;13.77;;
38479;SDS011;62333;51.980;5.934;2023-04-29T00:40:03;16.17;;;11.98;;
38479;SDS011;62333;51.980;5.934;2023-04-29T00:42:30;15.73;;;13.00;;
38479;SDS011;62333;51.980;5.934;2023-04-29T00:44:59;16.17;;;12.73;;
38479;SDS011;62333;51.980;5.934;2023-04-29T00:47:24;16.95;;;12.38;;
38479;SDS011;62333;51.980;5.934;2023-04-29T00:49:50;18.33;;;12.90;;
38479;SDS011;62333;51.980;5.934;2023-04-29T00:52:16;15.38;;;11.07;;
38479;SDS011;62333;51.980;5.934;2023-04-29T00:54:43;19.30;;;13.30;;
38479;SDS011;62333;51.980;5.934;2023-04-29T00:57:08;16.95;;;11.90;;
38479;SDS011;62333;51.980;5.934;2023-04-29T00:59:34;17.83;;;13.18;;
38479;SDS011;62333;51.980;5.934;2023-04-29T01:02:03;17.30;;;11.57;;
38479;SDS011;62333;51.980;5.934;2023-04-29T01:04:29;16.15;;;12.20;;
38479;SDS011;62333;51.980;5.934;2023-04-29T01:09:52;13.70;;;10.13;;
38479;SDS011;62333;51.980;5.934;2023-04-29T01:12:39;16.02;;;10.70;;
38479;SDS011;62333;51.980;5.934;2023-04-29T01:15:27;17.02;;;10.57;;
38479;SDS011;62333;51.980;5.934;2023-04-29T01:18:19;15.38;;;10.57;;
38479;SDS011;62333;51.980;5.934;2023-04-29T01:20:57;15.50;;;10.82;;
38479;SDS011;62333;51.980;5.934;2023-04-29T01:23:30;16.25;;;10.90;;
38479;SDS011;62333;51.980;5.934;2023-04-29T01:31:11;13.90;;;10.00;;
38479;SDS011;62333;51.980;5.934;2023-04-29T01:39:29;14.15;;;10.13;;
38479;SDS011;62333;51.980;5.934;2023-04-29T01:42:07;17.30;;;10.77;;
38479;SDS011;62333;51.980;5.934;2023-04-29T01:44:39;15.98;;;10.10;;
38479;SDS011;62333;51.980;5.934;2023-04-29T01:47:06;15.55;;;10.93;;
38479;SDS011;62333;51.980;5.934;2023-04-29T01:49:37;17.00;;;11.10;;
38479;SDS011;62333;51.980;5.934;2023-04-29T01:52:03;16.65;;;10.27;;
38479;SDS011;62333;51.980;5.934;2023-04-29T01:54:31;15.85;;;10.60;;
38479;SDS011;62333;51.980;5.934;2023-04-29T01:57:00;13.80;;;9.50;;
38479;SDS011;62333;51.980;5.934;2023-04-29T01:59:26;15.10;;;9.18;;
38479;SDS011;62333;51.980;5.934;2023-04-29T02:01:52;14.73;;;9.30;;
38479;SDS011;62333;51.980;5.934;2023-04-29T02:04:17;13.02;;;8.55;;
38479;SDS011;62333;51.980;5.934;2023-04-29T02:06:43;13.13;;;8.88;;
38479;SDS011;62333;51.980;5.934;2023-04-29T02:09:09;13.45;;;8.02;;
38479;SDS011;62333;51.980;5.934;2023-04-29T02:11:35;11.40;;;7.93;;
38479;SDS011;62333;51.980;5.934;2023-04-29T02:14:00;12.75;;;9.25;;
38479;SDS011;62333;51.980;5.934;2023-04-29T02:16:26;13.57;;;7.80;;
38479;SDS011;62333;51.980;5.934;2023-04-29T02:18:51;17.27;;;10.43;;
38479;SDS011;62333;51.980;5.934;2023-04-29T02:21:17;15.73;;;10.70;;
38479;SDS011;62333;51.980;5.934;2023-04-29T02:23:43;12.48;;;8.80;;
38479;SDS011;62333;51.980;5.934;2023-04-29T02:26:08;13.45;;;8.20;;
38479;SDS011;62333;51.980;5.934;2023-04-29T02:28:34;11.73;;;8.50;;
38479;SDS011;62333;51.980;5.934;2023-04-29T02:31:00;13.60;;;8.68;;
38479;SDS011;62333;51.980;5.934;2023-04-29T02:33:26;12.48;;;9.05;;
38479;SDS011;62333;51.980;5.934;2023-04-29T02:35:52;13.38;;;9.38;;
38479;SDS011;62333;51.980;5.934;2023-04-29T02:38:18;12.77;;;8.32;;
38479;SDS011;62333;51.980;5.934;2023-04-29T02:40:44;12.50;;;9.05;;
38479;SDS011;62333;51.980;5.934;2023-04-29T02:43:11;12.77;;;8.95;;
38479;SDS011;62333;51.980;5.934;2023-04-29T02:45:37;15.70;;;9.00;;
38479;SDS011;62333;51.980;5.934;2023-04-29T02:48:04;15.07;;;9.50;;
38479;SDS011;62333;51.980;5.934;2023-04-29T02:50:30;13.82;;;8.85;;
38479;SDS011;62333;51.980;5.934;2023-04-29T02:52:56;13.48;;;7.80;;
38479;SDS011;62333;51.980;5.934;2023-04-29T02:55:22;14.77;;;8.20;;
38479;SDS011;62333;51.980;5.934;2023-04-29T02:57:48;10.60;;;7.75;;
38479;SDS011;62333;51.980;5.934;2023-04-29T03:00:14;12.13;;;7.85;;
38479;SDS011;62333;51.980;5.934;2023-04-29T03:02:39;16.55;;;8.38;;
38479;SDS011;62333;51.980;5.934;2023-04-29T03:05:05;14.27;;;8.98;;
38479;SDS011;62333;51.980;5.934;2023-04-29T03:07:31;11.00;;;7.50;;
38479;SDS011;62333;51.980;5.934;2023-04-29T03:09:57;14.20;;;8.45;;
38479;SDS011;62333;51.980;5.934;2023-04-29T03:12:23;11.40;;;7.40;;
38479;SDS011;62333;51.980;5.934;2023-04-29T03:14:48;9.27;;;6.95;;
38479;SDS011;62333;51.980;5.934;2023-04-29T03:17:15;13.20;;;8.23;;
38479;SDS011;62333;51.980;5.934;2023-04-29T03:19:41;14.25;;;8.43;;
38479;SDS011;62333;51.980;5.934;2023-04-29T03:22:07;12.07;;;8.00;;
38479;SDS011;62333;51.980;5.934;2023-04-29T03:24:35;11.20;;;7.43;;
38479;SDS011;62333;51.980;5.934;2023-04-29T03:27:01;11.10;;;8.18;;
38479;SDS011;62333;51.980;5.934;2023-04-29T03:29:28;11.25;;;6.25;;
38479;SDS011;62333;51.980;5.934;2023-04-29T03:31:54;14.95;;;7.93;;
38479;SDS011;62333;51.980;5.934;2023-04-29T03:34:21;12.98;;;8.68;;
38479;SDS011;62333;51.980;5.934;2023-04-29T03:36:47;12.85;;;7.82;;
38479;SDS011;62333;51.980;5.934;2023-04-29T03:39:12;13.55;;;8.27;;
38479;SDS011;62333;51.980;5.934;2023-04-29T03:41:38;13.40;;;7.82;;
38479;SDS011;62333;51.980;5.934;2023-04-29T03:44:04;10.88;;;6.93;;
38479;SDS011;62333;51.980;5.934;2023-04-29T03:46:30;14.55;;;7.55;;
38479;SDS011;62333;51.980;5.934;2023-04-29T03:48:56;13.32;;;8.73;;
38479;SDS011;62333;51.980;5.934;2023-04-29T03:51:22;14.57;;;9.52;;
38479;SDS011;62333;51.980;5.934;2023-04-29T03:53:48;12.80;;;8.57;;
38479;SDS011;62333;51.980;5.934;2023-04-29T03:56:14;16.08;;;8.15;;
38479;SDS011;62333;51.980;5.934;2023-04-29T03:58:40;12.88;;;7.68;;
38479;SDS011;62333;51.980;5.934;2023-04-29T04:01:06;11.40;;;7.45;;
38479;SDS011;62333;51.980;5.934;2023-04-29T04:03:32;13.95;;;8.70;;
38479;SDS011;62333;51.980;5.934;2023-04-29T04:05:57;14.85;;;7.03;;
38479;SDS011;62333;51.980;5.934;2023-04-29T04:08:23;10.95;;;7.35;;
38479;SDS011;62333;51.980;5.934;2023-04-29T04:10:49;11.45;;;6.43;;
38479;SDS011;62333;51.980;5.934;2023-04-29T04:13:14;12.80;;;8.18;;
38479;SDS011;62333;51.980;5.934;2023-04-29T04:15:40;11.40;;;7.32;;
38479;SDS011;62333;51.980;5.934;2023-04-29T04:18:06;12.48;;;7.30;;
38479;SDS011;62333;51.980;5.934;2023-04-29T04:20:32;9.90;;;7.50;;
38479;SDS011;62333;51.980;5.934;2023-04-29T04:23:01;14.00;;;7.57;;
38479;SDS011;62333;51.980;5.934;2023-04-29T04:25:26;9.57;;;6.93;;
38479;SDS011;62333;51.980;5.934;2023-04-29T04:27:53;11.48;;;7.47;;
38479;SDS011;62333;51.980;5.934;2023-04-29T04:30:18;11.80;;;7.75;;
38479;SDS011;62333;51.980;5.934;2023-04-29T04:32:44;14.00;;;7.82;;
38479;SDS011;62333;51.980;5.934;2023-04-29T04:35:10;13.05;;;8.50;;
38479;SDS011;62333;51.980;5.934;2023-04-29T04:37:37;12.90;;;6.75;;
38479;SDS011;62333;51.980;5.934;2023-04-29T04:40:02;9.25;;;7.20;;
38479;SDS011;62333;51.980;5.934;2023-04-29T04:42:28;11.20;;;6.75;;
38479;SDS011;62333;51.980;5.934;2023-04-29T04:44:54;12.05;;;6.97;;
38479;SDS011;62333;51.980;5.934;2023-04-29T04:47:20;11.85;;;7.75;;
38479;SDS011;62333;51.980;5.934;2023-04-29T04:49:45;11.38;;;6.88;;
38479;SDS011;62333;51.980;5.934;2023-04-29T04:52:11;10.02;;;7.60;;
38479;SDS011;62333;51.980;5.934;2023-04-29T04:54:37;11.48;;;7.13;;
38479;SDS011;62333;51.980;5.934;2023-04-29T04:57:02;11.75;;;8.05;;
38479;SDS011;62333;51.980;5.934;2023-04-29T04:59:30;11.05;;;6.80;;
38479;SDS011;62333;51.980;5.934;2023-04-29T05:01:56;9.88;;;7.30;;
38479;SDS011;62333;51.980;5.934;2023-04-29T05:04:21;9.88;;;8.02;;
38479;SDS011;62333;51.980;5.934;2023-04-29T05:06:47;11.82;;;7.38;;
38479;SDS011;62333;51.980;5.934;2023-04-29T05:09:13;11.00;;;8.35;;
38479;SDS011;62333;51.980;5.934;2023-04-29T05:11:38;10.65;;;6.80;;
38479;SDS011;62333;51.980;5.934;2023-04-29T05:14:04;9.70;;;7.07;;
38479;SDS011;62333;51.980;5.934;2023-04-29T05:16:30;9.73;;;7.00;;
38479;SDS011;62333;51.980;5.934;2023-04-29T05:18:55;9.73;;;7.10;;
38479;SDS011;62333;51.980;5.934;2023-04-29T05:21:21;9.05;;;7.20;;
38479;SDS011;62333;51.980;5.934;2023-04-29T05:23:47;10.20;;;6.25;;
38479;SDS011;62333;51.980;5.934;2023-04-29T05:26:12;10.63;;;6.45;;
38479;SDS011;62333;51.980;5.934;2023-04-29T05:28:38;9.98;;;6.78;;
38479;SDS011;62333;51.980;5.934;2023-04-29T05:31:03;10.57;;;7.07;;
38479;SDS011;62333;51.980;5.934;2023-04-29T05:33:30;10.00;;;6.63;;
38479;SDS011;62333;51.980;5.934;2023-04-29T05:35:55;10.02;;;7.03;;
38479;SDS011;62333;51.980;5.934;2023-04-29T05:38:21;7.47;;;4.95;;
38479;SDS011;62333;51.980;5.934;2023-04-29T05:40:52;10.73;;;6.68;;
38479;SDS011;62333;51.980;5.934;2023-04-29T05:43:21;8.13;;;5.55;;
38479;SDS011;62333;51.980;5.934;2023-04-29T05:45:46;9.25;;;6.28;;
38479;SDS011;62333;51.980;5.934;2023-04-29T05:48:12;13.23;;;6.78;;
38479;SDS011;62333;51.980;5.934;2023-04-29T05:50:38;8.82;;;5.88;;
38479;SDS011;62333;51.980;5.934;2023-04-29T05:53:04;10.68;;;8.13;;
38479;SDS011;62333;51.980;5.934;2023-04-29T05:55:29;8.23;;;6.68;;
38479;SDS011;62333;51.980;5.934;2023-04-29T05:57:55;10.23;;;6.07;;
38479;SDS011;62333;51.980;5.934;2023-04-29T06:00:21;8.90;;;6.10;;
38479;SDS011;62333;51.980;5.934;2023-04-29T06:02:47;12.50;;;7.13;;
38479;SDS011;62333;51.980;5.934;2023-04-29T06:05:13;9.43;;;6.13;;
38479;SDS011;62333;51.980;5.934;2023-04-29T06:07:39;10.95;;;6.50;;
38479;SDS011;62333;51.980;5.934;2023-04-29T06:10:06;9.50;;;7.03;;
38479;SDS011;62333;51.980;5.934;2023-04-29T06:12:32;13.30;;;8.00;;
38479;SDS011;62333;51.980;5.934;2023-04-29T06:14:58;13.70;;;7.53;;
38479;SDS011;62333;51.980;5.934;2023-04-29T06:17:24;10.20;;;6.53;;
38479;SDS011;62333;51.980;5.934;2023-04-29T06:19:53;12.93;;;8.73;;
38479;SDS011;62333;51.980;5.934;2023-04-29T06:22:21;9.65;;;6.00;;
38479;SDS011;62333;51.980;5.934;2023-04-29T06:24:47;10.65;;;5.95;;
38479;SDS011;62333;51.980;5.934;2023-04-29T06:27:16;11.73;;;8.10;;
38479;SDS011;62333;51.980;5.934;2023-04-29T06:29:42;12.80;;;8.40;;
38479;SDS011;62333;51.980;5.934;2023-04-29T06:32:08;8.55;;;5.63;;
38479;SDS011;62333;51.980;5.934;2023-04-29T06:34:34;11.55;;;7.78;;
38479;SDS011;62333;51.980;5.934;2023-04-29T06:37:00;8.93;;;6.85;;
38479;SDS011;62333;51.980;5.934;2023-04-29T06:39:25;12.02;;;6.80;;
38479;SDS011;62333;51.980;5.934;2023-04-29T06:41:51;9.80;;;5.88;;
38479;SDS011;62333;51.980;5.934;2023-04-29T06:44:17;11.70;;;8.05;;
38479;SDS011;62333;51.980;5.934;2023-04-29T06:46:42;9.05;;;6.50;;
38479;SDS011;62333;51.980;5.934;2023-04-29T06:49:09;9.95;;;7.07;;
38479;SDS011;62333;51.980;5.934;2023-04-29T06:51:35;9.23;;;6.55;;
38479;SDS011;62333;51.980;5.934;2023-04-29T06:54:02;8.65;;;6.05;;
38479;SDS011;62333;51.980;5.934;2023-04-29T06:56:27;11.68;;;7.38;;
38479;SDS011;62333;51.980;5.934;2023-04-29T06:58:53;10.35;;;6.55;;
38479;SDS011;62333;51.980;5.934;2023-04-29T07:01:19;9.07;;;6.05;;
38479;SDS011;62333;51.980;5.934;2023-04-29T07:03:45;8.75;;;5.90;;
38479;SDS011;62333;51.980;5.934;2023-04-29T07:06:10;11.80;;;6.70;;
38479;SDS011;62333;51.980;5.934;2023-04-29T07:08:36;9.20;;;6.35;;
38479;SDS011;62333;51.980;5.934;2023-04-29T07:11:02;10.38;;;7.25;;
38479;SDS011;62333;51.980;5.934;2023-04-29T07:13:28;11.88;;;6.63;;
38479;SDS011;62333;51.980;5.934;2023-04-29T07:15:54;9.50;;;6.20;;
38479;SDS011;62333;51.980;5.934;2023-04-29T07:18:20;9.80;;;6.82;;
38479;SDS011;62333;51.980;5.934;2023-04-29T07:20:46;14.98;;;6.63;;
38479;SDS011;62333;51.980;5.934;2023-04-29T07:23:12;7.30;;;5.30;;
38479;SDS011;62333;51.980;5.934;2023-04-29T07:25:38;10.30;;;4.97;;
38479;SDS011;62333;51.980;5.934;2023-04-29T07:28:05;8.07;;;5.50;;
38479;SDS011;62333;51.980;5.934;2023-04-29T07:30:30;10.48;;;6.75;;
38479;SDS011;62333;51.980;5.934;2023-04-29T07:32:56;7.60;;;5.30;;
38479;SDS011;62333;51.980;5.934;2023-04-29T07:35:22;10.75;;;6.72;;
38479;SDS011;62333;51.980;5.934;2023-04-29T07:37:48;8.32;;;4.55;;
38479;SDS011;62333;51.980;5.934;2023-04-29T07:40:14;7.05;;;4.60;;
38479;SDS011;62333;51.980;5.934;2023-04-29T07:42:40;7.90;;;5.15;;
38479;SDS011;62333;51.980;5.934;2023-04-29T07:45:05;7.43;;;4.97;;
38479;SDS011;62333;51.980;5.934;2023-04-29T07:47:31;8.10;;;5.57;;
38479;SDS011;62333;51.980;5.934;2023-04-29T07:49:57;8.55;;;4.72;;
38479;SDS011;62333;51.980;5.934;2023-04-29T07:52:23;8.95;;;3.90;;
38479;SDS011;62333;51.980;5.934;2023-04-29T07:54:49;11.98;;;5.18;;
38479;SDS011;62333;51.980;5.934;2023-04-29T07:57:15;9.30;;;5.45;;
38479;SDS011;62333;51.980;5.934;2023-04-29T07:59:40;8.00;;;5.75;;
38479;SDS011;62333;51.980;5.934;2023-04-29T08:02:06;8.20;;;4.80;;
38479;SDS011;62333;51.980;5.934;2023-04-29T08:04:32;8.93;;;4.22;;
38479;SDS011;62333;51.980;5.934;2023-04-29T08:06:57;9.32;;;4.55;;
38479;SDS011;62333;51.980;5.934;2023-04-29T08:09:23;9.38;;;4.70;;
38479;SDS011;62333;51.980;5.934;2023-04-29T08:11:49;6.68;;;4.45;;
38479;SDS011;62333;51.980;5.934;2023-04-29T08:14:14;6.97;;;4.38;;
38479;SDS011;62333;51.980;5.934;2023-04-29T08:16:40;9.43;;;4.53;;
38479;SDS011;62333;51.980;5.934;2023-04-29T08:19:06;7.70;;;3.65;;
38479;SDS011;62333;51.980;5.934;2023-04-29T08:21:31;5.95;;;3.40;;
38479;SDS011;62333;51.980;5.934;2023-04-29T08:23:58;7.13;;;3.70;;
38479;SDS011;62333;51.980;5.934;2023-04-29T08:26:24;6.88;;;3.60;;
38479;SDS011;62333;51.980;5.934;2023-04-29T08:28:50;6.85;;;4.20;;
38479;SDS011;62333;51.980;5.934;2023-04-29T08:31:19;6.80;;;4.03;;
38479;SDS011;62333;51.980;5.934;2023-04-29T08:33:45;6.32;;;4.68;;
38479;SDS011;62333;51.980;5.934;2023-04-29T08:36:11;7.88;;;4.93;;
38479;SDS011;62333;51.980;5.934;2023-04-29T08:38:37;9.98;;;4.28;;
38479;SDS011;62333;51.980;5.934;2023-04-29T08:41:03;5.60;;;3.97;;
38479;SDS011;62333;51.980;5.934;2023-04-29T08:43:31;6.55;;;3.15;;
38479;SDS011;62333;51.980;5.934;2023-04-29T08:46:01;7.22;;;4.47;;
38479;SDS011;62333;51.980;5.934;2023-04-29T08:48:27;6.55;;;3.05;;
38479;SDS011;62333;51.980;5.934;2023-04-29T08:50:54;6.07;;;3.42;;
38479;SDS011;62333;51.980;5.934;2023-04-29T08:53:22;7.00;;;3.83;;
38479;SDS011;62333;51.980;5.934;2023-04-29T08:55:47;5.63;;;3.50;;
38479;SDS011;62333;51.980;5.934;2023-04-29T08:58:14;8.63;;;5.38;;
38479;SDS011;62333;51.980;5.934;2023-04-29T09:00:43;6.97;;;4.20;;
38479;SDS011;62333;51.980;5.934;2023-04-29T09:03:23;4.78;;;2.95;;
38479;SDS011;62333;51.980;5.934;2023-04-29T09:05:54;5.13;;;2.78;;
38479;SDS011;62333;51.980;5.934;2023-04-29T09:08:23;5.05;;;3.22;;
38479;SDS011;62333;51.980;5.934;2023-04-29T09:10:49;5.07;;;2.60;;
38479;SDS011;62333;51.980;5.934;2023-04-29T09:13:23;4.95;;;2.70;;
38479;SDS011;62333;51.980;5.934;2023-04-29T09:15:55;4.88;;;2.25;;
38479;SDS011;62333;51.980;5.934;2023-04-29T09:18:41;10.05;;;4.22;;
38479;SDS011;62333;51.980;5.934;2023-04-29T09:23:44;5.00;;;3.15;;
38479;SDS011;62333;51.980;5.934;2023-04-29T09:26:11;4.68;;;3.17;;
38479;SDS011;62333;51.980;5.934;2023-04-29T09:28:37;4.78;;;2.83;;
38479;SDS011;62333;51.980;5.934;2023-04-29T09:31:06;6.93;;;2.92;;
38479;SDS011;62333;51.980;5.934;2023-04-29T09:37:00;4.53;;;2.70;;
38479;SDS011;62333;51.980;5.934;2023-04-29T09:39:13;3.13;;;1.30;;
38479;SDS011;62333;51.980;5.934;2023-04-29T09:41:43;6.05;;;2.33;;
38479;SDS011;62333;51.980;5.934;2023-04-29T09:46:58;4.03;;;1.85;;
38479;SDS011;62333;51.980;5.934;2023-04-29T09:49:29;7.65;;;2.10;;
38479;SDS011;62333;51.980;5.934;2023-04-29T09:52:01;3.40;;;1.83;;
38479;SDS011;62333;51.980;5.934;2023-04-29T09:54:29;3.88;;;1.65;;
38479;SDS011;62333;51.980;5.934;2023-04-29T09:56:57;3.88;;;1.40;;
38479;SDS011;62333;51.980;5.934;2023-04-29T09:59:23;4.53;;;1.42;;
38479;SDS011;62333;51.980;5.934;2023-04-29T10:01:53;4.03;;;1.35;;
38479;SDS011;62333;51.980;5.934;2023-04-29T10:04:20;3.13;;;1.27;;
38479;SDS011;62333;51.980;5.934;2023-04-29T10:06:48;3.22;;;1.60;;
38479;SDS011;62333;51.980;5.934;2023-04-29T10:09:15;3.28;;;1.75;;
38479;SDS011;62333;51.980;5.934;2023-04-29T10:11:45;4.38;;;2.05;;
38479;SDS011;62333;51.980;5.934;2023-04-29T10:14:30;5.13;;;1.98;;
38479;SDS011;62333;51.980;5.934;2023-04-29T10:17:10;6.10;;;2.03;;
38479;SDS011;62333;51.980;5.934;2023-04-29T10:19:57;3.63;;;1.55;;
38479;SDS011;62333;51.980;5.934;2023-04-29T10:22:32;7.85;;;2.45;;
38479;SDS011;62333;51.980;5.934;2023-04-29T10:25:11;3.58;;;1.73;;
38479;SDS011;62333;51.980;5.934;2023-04-29T10:27:38;3.58;;;2.10;;
38479;SDS011;62333;51.980;5.934;2023-04-29T10:30:10;4.40;;;2.25;;
38479;SDS011;62333;51.980;5.934;2023-04-29T10:32:42;3.55;;;1.45;;
38479;SDS011;62333;51.980;5.934;2023-04-29T10:35:09;3.35;;;1.27;;
38479;SDS011;62333;51.980;5.934;2023-04-29T10:37:38;3.22;;;0.98;;
38479;SDS011;62333;51.980;5.934;2023-04-29T10:42:52;4.07;;;1.00;;
38479;SDS011;62333;51.980;5.934;2023-04-29T10:45:23;4.10;;;1.73;;
38479;SDS011;62333;51.980;5.934;2023-04-29T10:50:33;4.85;;;1.17;;
38479;SDS011;62333;51.980;5.934;2023-04-29T10:53:11;2.95;;;0.80;;
38479;SDS011;62333;51.980;5.934;2023-04-29T10:55:38;3.30;;;0.98;;
38479;SDS011;62333;51.980;5.934;2023-04-29T10:58:05;5.32;;;0.98;;
38479;SDS011;62333;51.980;5.934;2023-04-29T11:01:00;3.85;;;0.85;;
38479;SDS011;62333;51.980;5.934;2023-04-29T11:06:19;5.25;;;1.55;;
38479;SDS011;62333;51.980;5.934;2023-04-29T11:08:58;2.13;;;0.98;;
38479;SDS011;62333;51.980;5.934;2023-04-29T11:11:25;6.80;;;1.10;;
38479;SDS011;62333;51.980;5.934;2023-04-29T11:13:50;2.70;;;1.65;;
38479;SDS011;62333;51.980;5.934;2023-04-29T11:16:20;3.55;;;1.45;;
38479;SDS011;62333;51.980;5.934;2023-04-29T11:19:06;3.78;;;1.00;;
38479;SDS011;62333;51.980;5.934;2023-04-29T11:21:33;3.20;;;0.93;;
38479;SDS011;62333;51.980;5.934;2023-04-29T11:24:02;1.75;;;0.68;;
38479;SDS011;62333;51.980;5.934;2023-04-29T11:26:30;4.00;;;1.08;;
38479;SDS011;62333;51.980;5.934;2023-04-29T11:29:00;2.63;;;0.70;;
38479;SDS011;62333;51.980;5.934;2023-04-29T11:31:29;2.85;;;1.65;;
38479;SDS011;62333;51.980;5.934;2023-04-29T11:33:55;1.80;;;0.73;;
38479;SDS011;62333;51.980;5.934;2023-04-29T11:36:21;4.65;;;1.38;;
38479;SDS011;62333;51.980;5.934;2023-04-29T11:38:47;3.22;;;1.10;;
38479;SDS011;62333;51.980;5.934;2023-04-29T11:41:13;2.83;;;0.82;;
38479;SDS011;62333;51.980;5.934;2023-04-29T11:43:39;7.07;;;1.55;;
38479;SDS011;62333;51.980;5.934;2023-04-29T11:46:12;3.53;;;1.05;;
38479;SDS011;62333;51.980;5.934;2023-04-29T11:48:44;2.53;;;1.15;;
38479;SDS011;62333;51.980;5.934;2023-04-29T11:51:14;4.28;;;1.02;;
38479;SDS011;62333;51.980;5.934;2023-04-29T11:53:41;4.07;;;1.10;;
38479;SDS011;62333;51.980;5.934;2023-04-29T11:56:08;1.90;;;0.80;;
38479;SDS011;62333;51.980;5.934;2023-04-29T11:58:34;3.38;;;0.57;;
38479;SDS011;62333;51.980;5.934;2023-04-29T12:01:01;3.70;;;0.88;;
38479;SDS011;62333;51.980;5.934;2023-04-29T12:03:33;2.20;;;1.15;;
38479;SDS011;62333;51.980;5.934;2023-04-29T12:06:00;2.67;;;0.90;;
38479;SDS011;62333;51.980;5.934;2023-04-29T12:08:27;2.88;;;1.08;;
38479;SDS011;62333;51.980;5.934;2023-04-29T12:10:55;2.05;;;0.50;;
38479;SDS011;62333;51.980;5.934;2023-04-29T12:13:23;3.60;;;0.82;;
38479;SDS011;62333;51.980;5.934;2023-04-29T12:15:51;3.78;;;1.02;;
38479;SDS011;62333;51.980;5.934;2023-04-29T12:18:18;3.38;;;0.77;;
38479;SDS011;62333;51.980;5.934;2023-04-29T12:20:46;4.95;;;0.98;;
38479;SDS011;62333;51.980;5.934;2023-04-29T12:23:18;2.83;;;0.80;;
38479;SDS011;62333;51.980;5.934;2023-04-29T12:28:16;6.45;;;1.15;;
38479;SDS011;62333;51.980;5.934;2023-04-29T12:30:48;3.33;;;1.35;;
38479;SDS011;62333;51.980;5.934;2023-04-29T12:33:22;2.55;;;0.88;;
38479;SDS011;62333;51.980;5.934;2023-04-29T12:35:56;1.73;;;0.60;;
38479;SDS011;62333;51.980;5.934;2023-04-29T12:38:23;7.93;;;0.90;;
38479;SDS011;62333;51.980;5.934;2023-04-29T12:40:53;2.38;;;0.70;;
38479;SDS011;62333;51.980;5.934;2023-04-29T12:46:05;2.90;;;0.75;;
38479;SDS011;62333;51.980;5.934;2023-04-29T12:48:33;3.53;;;0.77;;
38479;SDS011;62333;51.980;5.934;2023-04-29T12:51:01;1.88;;;0.63;;
38479;SDS011;62333;51.980;5.934;2023-04-29T12:53:30;2.72;;;1.08;;
38479;SDS011;62333;51.980;5.934;2023-04-29T12:55:56;2.70;;;0.75;;
38479;SDS011;62333;51.980;5.934;2023-04-29T12:58:22;2.13;;;0.73;;
38479;SDS011;62333;51.980;5.934;2023-04-29T13:00:48;1.00;;;0.50;;
38479;SDS011;62333;51.980;5.934;2023-04-29T13:03:14;3.47;;;0.63;;
38479;SDS011;62333;51.980;5.934;2023-04-29T13:05:40;4.00;;;0.88;;
38479;SDS011;62333;51.980;5.934;2023-04-29T13:08:06;2.25;;;0.40;;
38479;SDS011;62333;51.980;5.934;2023-04-29T13:10:33;1.98;;;0.40;;
38479;SDS011;62333;51.980;5.934;2023-04-29T13:12:59;1.25;;;0.77;;
38479;SDS011;62333;51.980;5.934;2023-04-29T13:15:25;2.45;;;0.40;;
38479;SDS011;62333;51.980;5.934;2023-04-29T13:17:51;1.67;;;0.60;;
38479;SDS011;62333;51.980;5.934;2023-04-29T13:20:17;2.55;;;0.95;;
38479;SDS011;62333;51.980;5.934;2023-04-29T13:22:43;2.33;;;0.77;;
38479;SDS011;62333;51.980;5.934;2023-04-29T13:25:09;4.70;;;0.77;;
38479;SDS011;62333;51.980;5.934;2023-04-29T13:27:36;2.35;;;0.88;;
38479;SDS011;62333;51.980;5.934;2023-04-29T13:30:03;0.95;;;0.30;;
38479;SDS011;62333;51.980;5.934;2023-04-29T13:32:29;2.67;;;0.40;;
38479;SDS011;62333;51.980;5.934;2023-04-29T13:34:55;2.53;;;0.90;;
38479;SDS011;62333;51.980;5.934;2023-04-29T13:37:21;2.10;;;0.70;;
38479;SDS011;62333;51.980;5.934;2023-04-29T13:39:47;2.25;;;0.80;;
38479;SDS011;62333;51.980;5.934;2023-04-29T13:42:12;1.20;;;0.45;;
38479;SDS011;62333;51.980;5.934;2023-04-29T13:44:38;3.50;;;0.93;;
38479;SDS011;62333;51.980;5.934;2023-04-29T13:47:08;2.38;;;0.68;;
38479;SDS011;62333;51.980;5.934;2023-04-29T13:49:35;3.80;;;0.70;;
38479;SDS011;62333;51.980;5.934;2023-04-29T13:52:01;2.30;;;0.60;;
38479;SDS011;62333;51.980;5.934;2023-04-29T13:54:27;0.90;;;0.47;;
38479;SDS011;62333;51.980;5.934;2023-04-29T13:56:52;1.70;;;0.52;;
38479;SDS011;62333;51.980;5.934;2023-04-29T13:59:18;1.33;;;0.30;;
38479;SDS011;62333;51.980;5.934;2023-04-29T14:01:44;1.25;;;0.30;;
38479;SDS011;62333;51.980;5.934;2023-04-29T14:04:10;0.77;;;0.30;;
38479;SDS011;62333;51.980;5.934;2023-04-29T14:06:35;2.90;;;1.00;;
38479;SDS011;62333;51.980;5.934;2023-04-29T14:09:01;3.40;;;1.05;;
38479;SDS011;62333;51.980;5.934;2023-04-29T14:11:28;1.65;;;0.30;;
38479;SDS011;62333;51.980;5.934;2023-04-29T14:13:53;1.50;;;0.40;;
38479;SDS011;62333;51.980;5.934;2023-04-29T14:16:20;1.17;;;0.50;;
38479;SDS011;62333;51.980;5.934;2023-04-29T14:18:45;2.75;;;0.40;;
38479;SDS011;62333;51.980;5.934;2023-04-29T14:21:11;1.77;;;0.50;;
38479;SDS011;62333;51.980;5.934;2023-04-29T14:23:37;1.45;;;0.50;;
38479;SDS011;62333;51.980;5.934;2023-04-29T14:26:03;3.20;;;0.80;;
38479;SDS011;62333;51.980;5.934;2023-04-29T14:28:29;3.42;;;0.55;;
38479;SDS011;62333;51.980;5.934;2023-04-29T14:30:54;1.52;;;0.40;;
38479;SDS011;62333;51.980;5.934;2023-04-29T14:33:20;0.90;;;0.47;;
38479;SDS011;62333;51.980;5.934;2023-04-29T14:35:46;1.92;;;0.60;;
38479;SDS011;62333;51.980;5.934;2023-04-29T14:38:12;2.47;;;0.50;;
38479;SDS011;62333;51.980;5.934;2023-04-29T14:40:38;1.60;;;0.77;;
38479;SDS011;62333;51.980;5.934;2023-04-29T14:43:04;1.52;;;0.40;;
38479;SDS011;62333;51.980;5.934;2023-04-29T14:45:30;2.20;;;0.43;;
38479;SDS011;62333;51.980;5.934;2023-04-29T14:47:56;1.50;;;0.40;;
38479;SDS011;62333;51.980;5.934;2023-04-29T14:50:22;1.55;;;0.45;;
38479;SDS011;62333;51.980;5.934;2023-04-29T14:52:49;2.65;;;0.60;;
38479;SDS011;62333;51.980;5.934;2023-04-29T14:55:14;1.35;;;0.30;;
38479;SDS011;62333;51.980;5.934;2023-04-29T14:57:40;1.38;;;0.30;;
38479;SDS011;62333;51.980;5.934;2023-04-29T15:00:06;1.60;;;0.40;;
38479;SDS011;62333;51.980;5.934;2023-04-29T15:02:33;1.55;;;0.50;;
38479;SDS011;62333;51.980;5.934;2023-04-29T15:04:58;2.42;;;0.50;;
38479;SDS011;62333;51.980;5.934;2023-04-29T15:07:24;1.20;;;0.40;;
38479;SDS011;62333;51.980;5.934;2023-04-29T15:09:50;1.15;;;0.30;;
38479;SDS011;62333;51.980;5.934;2023-04-29T15:12:16;1.48;;;0.60;;
38479;SDS011;62333;51.980;5.934;2023-04-29T15:14:43;1.27;;;0.57;;
38479;SDS011;62333;51.980;5.934;2023-04-29T15:17:09;0.63;;;0.40;;